Time;durP1;ratioP1;P1;durP2;ratioP2;P2;SDS_P1;SDS_P2;PMS_P1;PMS_P2;Temp;Humidity;BMP_temperature;BMP_pressure;BME280_temperature;BME280_humidity;BME280_pressure;Samples;Min_cycle;Max_cycle;Signal;HPM_P1;HPM_P2
2024/01/09 00:02:22;;;;;;;1.38;0.93;;;-2.90;99.90;;;;;;4981786;28;20459;-77
2024/01/09 00:04:48;;;;;;;3.20;0.88;;;-2.90;99.90;;;;;;4981259;28;20055;-78
2024/01/09 00:07:14;;;;;;;6.93;1.23;;;-2.90;99.90;;;;;;4996721;28;20105;-78
2024/01/09 00:09:39;;;;;;;4.25;1.52;;;-2.90;99.90;;;;;;4997701;28;20049;-78
2024/01/09 00:12:05;;;;;;;2.83;1.65;;;-2.90;99.90;;;;;;4984189;28;20435;-78
2024/01/09 00:14:31;;;;;;;2.22;1.42;;;-2.90;99.90;;;;;;5013934;28;20046;-78
2024/01/09 00:16:57;;;;;;;3.05;1.70;;;-3.00;99.90;;;;;;4994967;28;20062;-78
2024/01/09 00:19:23;;;;;;;4.15;1.42;;;-3.00;99.90;;;;;;5015688;28;20034;-77
2024/01/09 00:21:49;;;;;;;0.52;0.52;;;-3.00;99.90;;;;;;5000797;28;20034;-78
2024/01/09 00:24:15;;;;;;;2.33;0.95;;;-3.00;99.90;;;;;;4965558;28;20053;-78
2024/01/09 00:26:44;;;;;;;6.30;1.77;;;-3.00;99.90;;;;;;4967612;28;20046;-77
2024/01/09 00:29:10;;;;;;;1.83;1.55;;;-3.10;99.90;;;;;;4984540;28;20053;-77
2024/01/09 00:31:36;;;;;;;2.70;1.00;;;-3.10;99.90;;;;;;4970183;28;20053;-78
2024/01/09 00:34:02;;;;;;;1.48;1.10;;;-3.10;99.90;;;;;;4982129;28;20061;-77
2024/01/09 00:36:28;;;;;;;0.85;0.85;;;-3.10;99.90;;;;;;5035327;28;20101;-78
2024/01/09 00:38:54;;;;;;;1.20;1.10;;;-3.10;99.90;;;;;;4967053;28;20041;-79
2024/01/09 00:41:19;;;;;;;2.20;1.45;;;-3.20;99.90;;;;;;5007113;28;20038;-78
2024/01/09 00:43:45;;;;;;;3.95;2.00;;;-3.20;99.90;;;;;;5013247;28;20054;-78
2024/01/09 00:46:11;;;;;;;0.98;0.65;;;-3.20;99.90;;;;;;4983297;28;20042;-78
2024/01/09 00:48:37;;;;;;;2.03;0.82;;;-3.20;99.90;;;;;;5012303;28;20132;-78
2024/01/09 00:51:04;;;;;;;2.22;1.02;;;-3.30;99.90;;;;;;4989887;28;20032;-77
2024/01/09 00:53:29;;;;;;;1.88;1.00;;;-3.20;99.90;;;;;;5007606;28;20058;-77
2024/01/09 00:55:56;;;;;;;0.68;0.68;;;-3.20;99.90;;;;;;4988863;28;20058;-78
2024/01/09 00:58:21;;;;;;;5.70;1.38;;;-3.30;99.90;;;;;;5015480;28;20064;-78
2024/01/09 01:00:47;;;;;;;4.03;1.42;;;-3.30;99.90;;;;;;4990585;28;20054;-78
2024/01/09 01:03:13;;;;;;;2.50;1.20;;;-3.30;99.90;;;;;;4962402;28;20045;-78
2024/01/09 01:05:38;;;;;;;5.25;2.17;;;-3.30;99.90;;;;;;5060667;28;20049;-78
2024/01/09 01:08:04;;;;;;;3.20;2.53;;;-3.30;99.90;;;;;;5006988;28;20080;-78
2024/01/09 01:10:30;;;;;;;0.93;0.90;;;-3.40;99.90;;;;;;4981023;28;20050;-78
2024/01/09 01:12:56;;;;;;;1.20;1.10;;;-3.40;99.90;;;;;;5011447;28;20038;-78
2024/01/09 01:15:23;;;;;;;4.65;2.30;;;-3.40;99.90;;;;;;4979825;28;20037;-78
2024/01/09 01:17:48;;;;;;;0.75;0.75;;;-3.40;99.90;;;;;;5016655;28;20037;-78
2024/01/09 01:20:15;;;;;;;2.15;1.08;;;-3.40;99.90;;;;;;5014619;28;20038;-78
2024/01/09 01:22:41;;;;;;;1.52;0.98;;;-3.40;99.90;;;;;;5005023;28;20401;-78
2024/01/09 01:25:08;;;;;;;0.60;0.60;;;-3.40;99.90;;;;;;5015312;28;20037;-78
2024/01/09 01:27:33;;;;;;;1.20;0.85;;;-3.40;99.90;;;;;;4980219;28;20034;-78
2024/01/09 01:29:59;;;;;;;2.10;1.23;;;-3.40;99.90;;;;;;4982084;28;20123;-78
2024/01/09 01:32:25;;;;;;;2.80;0.85;;;-3.40;99.90;;;;;;4972514;28;20049;-78
2024/01/09 01:34:50;;;;;;;2.80;1.17;;;-3.50;99.90;;;;;;4996045;28;20098;-78
2024/01/09 01:37:16;;;;;;;2.72;1.27;;;-3.50;99.90;;;;;;5016420;28;20046;-78
2024/01/09 01:39:42;;;;;;;4.57;1.48;;;-3.50;99.90;;;;;;4980421;28;20501;-78
2024/01/09 01:42:07;;;;;;;1.02;0.73;;;-3.50;99.90;;;;;;4997809;28;20129;-78
2024/01/09 01:44:33;;;;;;;0.98;0.80;;;-3.50;99.90;;;;;;4992449;28;20061;-78
2024/01/09 01:46:59;;;;;;;1.73;0.65;;;-3.50;99.90;;;;;;4982049;28;20073;-78
2024/01/09 01:49:25;;;;;;;4.10;0.68;;;-3.60;99.90;;;;;;4977678;28;20060;-78
2024/01/09 01:51:51;;;;;;;2.67;0.68;;;-3.60;99.90;;;;;;4992603;28;20042;-78
2024/01/09 01:54:18;;;;;;;1.38;1.23;;;-3.60;99.90;;;;;;4991412;28;20062;-78
2024/01/09 01:56:46;;;;;;;4.55;1.98;;;-3.60;99.90;;;;;;4979819;28;20049;-78
2024/01/09 01:59:16;;;;;;;2.20;0.80;;;-3.60;99.90;;;;;;5015735;28;20106;-78
2024/01/09 02:01:45;;;;;;;1.90;1.13;;;-3.60;99.90;;;;;;5011969;28;20038;-78
2024/01/09 02:04:11;;;;;;;0.75;0.75;;;-3.70;99.90;;;;;;4990689;28;20042;-78
2024/01/09 02:06:38;;;;;;;3.08;1.52;;;-3.70;99.90;;;;;;5011789;28;20046;-78
2024/01/09 02:09:04;;;;;;;2.00;1.58;;;-3.70;99.90;;;;;;4982670;28;20075;-78
2024/01/09 02:11:30;;;;;;;3.53;1.60;;;-3.70;99.90;;;;;;4998814;28;20053;-78
2024/01/09 02:13:56;;;;;;;0.98;0.90;;;-3.70;99.90;;;;;;4981714;28;20050;-78
2024/01/09 02:16:22;;;;;;;0.68;0.50;;;-3.70;99.90;;;;;;4998977;28;20417;-78
2024/01/09 02:18:47;;;;;;;2.28;0.60;;;-3.70;99.90;;;;;;4978881;28;20043;-78
2024/01/09 02:21:13;;;;;;;1.92;0.50;;;-3.70;99.90;;;;;;4979481;28;20072;-78
2024/01/09 02:23:39;;;;;;;4.53;1.27;;;-3.70;99.90;;;;;;4982352;28;20114;-78
2024/01/09 02:26:06;;;;;;;4.32;1.58;;;-3.70;99.90;;;;;;5014683;28;20054;-78
2024/01/09 02:28:45;;;;;;;1.15;1.05;;;-3.70;99.90;;;;;;4998261;28;20046;-78
2024/01/09 02:31:12;;;;;;;0.20;0.20;;;-3.70;99.90;;;;;;4998175;28;20483;-78
2024/01/09 02:33:39;;;;;;;2.63;1.70;;;-3.80;99.90;;;;;;4999176;28;20064;-78
2024/01/09 02:36:05;;;;;;;0.57;0.57;;;-3.80;99.90;;;;;;4965406;28;20050;-78
2024/01/09 02:38:30;;;;;;;1.70;0.82;;;-3.80;99.90;;;;;;4977943;28;20049;-78
2024/01/09 02:40:56;;;;;;;1.35;0.55;;;-3.80;99.90;;;;;;4995697;28;20048;-78
2024/01/09 02:43:22;;;;;;;1.05;0.70;;;-3.80;99.90;;;;;;4997338;28;20038;-78
2024/01/09 02:45:47;;;;;;;16.75;0.90;;;-3.80;99.90;;;;;;4993734;28;21641;-78
2024/01/09 02:48:13;;;;;;;2.08;1.65;;;-3.90;99.90;;;;;;4989168;28;20034;-78
2024/01/09 02:50:38;;;;;;;0.52;0.50;;;-3.90;99.90;;;;;;4997501;28;20042;-78
2024/01/09 02:53:04;;;;;;;1.48;1.35;;;-3.90;99.90;;;;;;4979099;28;20062;-78
2024/01/09 02:55:30;;;;;;;0.40;0.38;;;-3.90;99.90;;;;;;5011682;28;20078;-78
2024/01/09 02:57:56;;;;;;;0.20;0.20;;;-3.90;99.90;;;;;;4972722;28;20045;-78
2024/01/09 03:00:21;;;;;;;1.75;0.57;;;-4.00;99.90;;;;;;5013979;28;20111;-78
2024/01/09 03:02:47;;;;;;;6.22;1.83;;;-3.90;99.90;;;;;;4999639;28;20057;-78
2024/01/09 03:05:12;;;;;;;1.70;0.98;;;-3.90;99.90;;;;;;5000244;28;20076;-78
2024/01/09 03:07:38;;;;;;;0.43;0.43;;;-3.90;99.90;;;;;;4989017;28;20090;-78
2024/01/09 03:10:04;;;;;;;2.17;1.10;;;-3.90;99.90;;;;;;4999615;28;20124;-78
2024/01/09 03:12:30;;;;;;;1.48;0.93;;;-3.90;99.90;;;;;;4976411;28;20053;-78
2024/01/09 03:14:56;;;;;;;1.05;0.90;;;-3.90;99.90;;;;;;4957765;28;20042;-78
2024/01/09 03:17:22;;;;;;;2.90;1.17;;;-4.00;99.90;;;;;;5006581;28;20120;-78
2024/01/09 03:19:47;;;;;;;1.10;0.75;;;-4.00;99.90;;;;;;4980182;28;20054;-78
2024/01/09 03:22:13;;;;;;;0.77;0.57;;;-3.90;99.90;;;;;;5001006;28;20056;-78
2024/01/09 03:24:39;;;;;;;2.97;1.48;;;-4.00;99.90;;;;;;5001431;28;20046;-78
2024/01/09 03:27:05;;;;;;;3.33;1.23;;;-4.00;99.90;;;;;;4983886;28;20882;-79
2024/01/09 03:29:30;;;;;;;1.00;0.40;;;-4.00;99.90;;;;;;4998311;28;20363;-78
2024/01/09 03:31:56;;;;;;;2.42;1.42;;;-4.00;99.90;;;;;;4982322;28;20132;-78
2024/01/09 03:34:22;;;;;;;0.88;0.60;;;-4.00;99.90;;;;;;5001277;28;20038;-78
2024/01/09 03:36:48;;;;;;;1.02;0.68;;;-4.00;99.90;;;;;;4999713;28;20310;-78
2024/01/09 03:39:16;;;;;;;3.42;0.93;;;-4.10;99.90;;;;;;4999401;28;20053;-78
2024/01/09 03:41:42;;;;;;;1.58;0.68;;;-4.00;99.90;;;;;;4985106;28;20091;-78
2024/01/09 03:44:09;;;;;;;3.35;0.82;;;-4.10;99.90;;;;;;5015682;28;20044;-79
2024/01/09 03:46:35;;;;;;;0.55;0.55;;;-4.10;99.90;;;;;;5016639;28;20046;-79
2024/01/09 03:49:01;;;;;;;0.93;0.30;;;-4.10;99.90;;;;;;4998371;28;20053;-78
2024/01/09 03:51:26;;;;;;;1.45;0.98;;;-4.10;99.90;;;;;;4999739;28;20050;-78
2024/01/09 03:53:52;;;;;;;0.63;0.52;;;-4.20;99.90;;;;;;5015470;28;20062;-79
2024/01/09 03:56:18;;;;;;;0.32;0.32;;;-4.20;99.90;;;;;;5016160;28;20568;-78
2024/01/09 03:58:44;;;;;;;1.15;0.77;;;-4.20;99.90;;;;;;4996699;28;20511;-78
2024/01/09 04:01:10;;;;;;;0.77;0.43;;;-4.10;99.90;;;;;;4983719;28;20069;-78
2024/01/09 04:03:36;;;;;;;1.90;1.17;;;-4.20;99.90;;;;;;5001035;28;20128;-78
2024/01/09 04:06:05;;;;;;;2.30;1.20;;;-4.20;99.90;;;;;;5016133;28;20069;-77
2024/01/09 04:08:30;;;;;;;0.68;0.60;;;-4.20;99.90;;;;;;4966569;28;20056;-77
2024/01/09 04:10:56;;;;;;;0.63;0.43;;;-4.20;99.90;;;;;;4983638;28;20069;-78
2024/01/09 04:13:22;;;;;;;1.50;0.93;;;-4.10;99.90;;;;;;4982995;28;20105;-78
2024/01/09 04:15:47;;;;;;;0.80;0.68;;;-4.20;99.90;;;;;;5015356;28;20072;-78
2024/01/09 04:18:13;;;;;;;3.15;0.95;;;-4.20;99.90;;;;;;5035401;28;20185;-78
2024/01/09 04:20:42;;;;;;;1.10;0.60;;;-4.10;99.90;;;;;;4983526;28;20049;-77
2024/01/09 04:23:08;;;;;;;3.03;0.70;;;-4.20;99.90;;;;;;5012942;28;20064;-78
2024/01/09 04:25:34;;;;;;;2.83;0.85;;;-4.30;99.90;;;;;;4984198;28;20046;-77
2024/01/09 04:28:00;;;;;;;1.17;0.75;;;-4.30;99.90;;;;;;4999422;28;20042;-77
2024/01/09 04:30:26;;;;;;;1.15;1.02;;;-4.30;99.90;;;;;;5000000;28;20057;-78
2024/01/09 04:32:52;;;;;;;0.63;0.50;;;-4.30;99.90;;;;;;5000011;28;20066;-78
2024/01/09 04:35:18;;;;;;;2.78;1.73;;;-4.30;99.90;;;;;;5016179;28;20061;-78
2024/01/09 04:37:44;;;;;;;11.32;0.80;;;-4.30;99.90;;;;;;5016621;28;20433;-78
2024/01/09 04:40:10;;;;;;;1.23;0.73;;;-4.20;99.90;;;;;;5015315;28;20053;-78
2024/01/09 04:42:35;;;;;;;1.40;1.30;;;-4.30;99.90;;;;;;5000241;28;20140;-77
2024/01/09 04:45:01;;;;;;;0.70;0.70;;;-4.30;99.90;;;;;;4966552;28;20485;-77
2024/01/09 04:47:27;;;;;;;1.02;0.47;;;-4.30;99.90;;;;;;4956953;28;20054;-78
2024/01/09 04:49:53;;;;;;;6.47;2.45;;;-4.30;99.90;;;;;;4978218;28;20042;-78
2024/01/09 04:52:18;;;;;;;3.78;0.98;;;-4.30;99.90;;;;;;4998868;28;20045;-78
2024/01/09 04:54:44;;;;;;;1.08;0.82;;;-4.30;99.90;;;;;;4983571;28;20057;-77
2024/01/09 04:57:10;;;;;;;2.53;1.27;;;-4.30;99.90;;;;;;4998382;28;20050;-78
2024/01/09 04:59:36;;;;;;;1.52;1.42;;;-4.40;99.90;;;;;;5051415;28;20074;-78
2024/01/09 05:02:02;;;;;;;0.75;0.63;;;-4.40;99.90;;;;;;4996826;28;20081;-78
2024/01/09 05:04:31;;;;;;;1.88;1.23;;;-4.40;99.90;;;;;;4999176;28;20050;-77
2024/01/09 05:06:57;;;;;;;8.70;3.65;;;-4.40;99.90;;;;;;5014392;28;20053;-78
2024/01/09 05:09:23;;;;;;;2.47;1.42;;;-4.40;99.90;;;;;;5015669;28;20041;-78
2024/01/09 05:11:49;;;;;;;0.75;0.75;;;-4.40;99.90;;;;;;5015391;28;20403;-78
2024/01/09 05:14:15;;;;;;;0.45;0.43;;;-4.40;99.90;;;;;;4979065;28;20039;-78
2024/01/09 05:16:41;;;;;;;2.72;1.55;;;-4.40;99.90;;;;;;5009475;28;20045;-77
2024/01/09 05:19:06;;;;;;;2.50;0.80;;;-4.50;99.90;;;;;;5014043;28;20070;-78
2024/01/09 05:21:32;;;;;;;0.55;0.47;;;-4.50;99.90;;;;;;4966233;28;20069;-78
2024/01/09 05:23:58;;;;;;;0.38;0.38;;;-4.60;99.90;;;;;;4997425;28;20042;-78
2024/01/09 05:26:23;;;;;;;1.13;0.40;;;-4.50;99.90;;;;;;4999009;28;20084;-78
2024/01/09 05:28:49;;;;;;;1.25;1.23;;;-4.50;99.90;;;;;;4976682;28;20098;-78
2024/01/09 05:31:15;;;;;;;7.03;1.08;;;-4.50;99.90;;;;;;5013875;28;20042;-78
2024/01/09 05:33:40;;;;;;;1.00;0.80;;;-4.60;99.90;;;;;;4998095;28;20046;-78
2024/01/09 05:36:06;;;;;;;2.58;1.05;;;-4.50;99.90;;;;;;4997251;28;20109;-78
2024/01/09 05:38:33;;;;;;;1.05;0.95;;;-4.50;99.90;;;;;;5015120;28;20110;-79
2024/01/09 05:40:59;;;;;;;1.15;0.93;;;-4.60;99.90;;;;;;4980104;28;20061;-78
2024/01/09 05:43:24;;;;;;;7.22;1.08;;;-4.60;99.90;;;;;;4977793;28;21040;-79
2024/01/09 05:45:50;;;;;;;1.52;1.17;;;-4.60;99.90;;;;;;5015725;28;20049;-78
2024/01/09 05:48:16;;;;;;;0.88;0.50;;;-4.60;99.90;;;;;;4994847;28;20042;-78
2024/01/09 05:50:41;;;;;;;0.75;0.65;;;-4.60;99.90;;;;;;4982623;28;20516;-78
2024/01/09 05:53:08;;;;;;;0.52;0.52;;;-4.70;99.90;;;;;;4996441;28;20099;-78
2024/01/09 05:55:33;;;;;;;3.22;2.67;;;-4.70;99.90;;;;;;4996310;28;20069;-78
2024/01/09 05:57:59;;;;;;;2.05;0.68;;;-4.70;99.90;;;;;;4997874;28;20410;-78
2024/01/09 06:00:25;;;;;;;0.57;0.57;;;-4.70;99.90;;;;;;4998441;28;20058;-78
2024/01/09 06:02:51;;;;;;;4.10;1.35;;;-4.70;99.90;;;;;;5013217;28;20072;-78
2024/01/09 06:05:17;;;;;;;4.72;2.63;;;-4.70;99.90;;;;;;4996955;28;20452;-78
2024/01/09 06:07:43;;;;;;;11.05;3.22;;;-4.70;99.90;;;;;;5014336;28;20969;-79
2024/01/09 06:10:09;;;;;;;1.83;1.13;;;-4.80;99.90;;;;;;4997985;28;20084;-79
2024/01/09 06:12:34;;;;;;;5.15;1.70;;;-4.80;99.90;;;;;;4982665;28;20107;-78
2024/01/09 06:15:00;;;;;;;0.50;0.50;;;-4.80;99.90;;;;;;4981887;28;20045;-78
2024/01/09 06:17:26;;;;;;;1.15;0.82;;;-4.80;99.90;;;;;;5034082;28;20045;-78
2024/01/09 06:19:52;;;;;;;1.55;0.93;;;-4.80;99.90;;;;;;4979155;28;20047;-78
2024/01/09 06:22:18;;;;;;;1.70;1.13;;;-4.80;99.90;;;;;;4958684;28;20055;-79
2024/01/09 06:24:44;;;;;;;8.18;0.90;;;-4.80;99.90;;;;;;5014273;28;20085;-79
2024/01/09 06:27:10;;;;;;;1.45;0.77;;;-4.80;99.90;;;;;;4998017;28;20057;-79
2024/01/09 06:29:35;;;;;;;1.67;1.30;;;-4.90;99.90;;;;;;5015470;28;20053;-79
2024/01/09 06:32:01;;;;;;;2.22;1.20;;;-4.90;99.90;;;;;;4978771;28;20058;-79
2024/01/09 06:34:27;;;;;;;1.52;0.32;;;-4.80;99.90;;;;;;4963377;28;20054;-78
2024/01/09 06:36:52;;;;;;;1.75;1.17;;;-4.90;99.90;;;;;;4984126;28;20556;-79
2024/01/09 06:39:18;;;;;;;1.92;0.65;;;-4.80;99.90;;;;;;5016889;28;20052;-79
2024/01/09 06:41:44;;;;;;;2.30;0.73;;;-4.80;99.90;;;;;;5001349;28;20061;-79
2024/01/09 06:44:10;;;;;;;0.30;0.30;;;-4.80;99.90;;;;;;4958778;28;20050;-79
2024/01/09 06:46:36;;;;;;;1.45;1.10;;;-4.80;99.90;;;;;;5000064;28;20041;-79
2024/01/09 06:49:01;;;;;;;0.63;0.60;;;-4.90;99.90;;;;;;4983463;28;20041;-79
2024/01/09 06:51:29;;;;;;;2.17;1.05;;;-4.90;99.90;;;;;;4999715;28;20050;-79
2024/01/09 06:53:55;;;;;;;2.22;1.63;;;-4.90;99.90;;;;;;5014458;28;20133;-78
2024/01/09 06:56:21;;;;;;;0.47;0.40;;;-4.90;99.90;;;;;;5012947;28;20093;-79
2024/01/09 06:58:47;;;;;;;0.50;0.50;;;-4.90;99.90;;;;;;4973220;28;20038;-79
2024/01/09 07:01:12;;;;;;;3.20;0.82;;;-4.90;99.90;;;;;;4993337;28;20042;-79
2024/01/09 07:03:38;;;;;;;2.83;1.65;;;-4.90;99.90;;;;;;4994871;28;20819;-79
2024/01/09 07:06:04;;;;;;;5.38;1.85;;;-4.90;99.90;;;;;;4975883;28;20041;-79
2024/01/09 07:08:30;;;;;;;0.63;0.40;;;-4.90;99.90;;;;;;4981733;28;20109;-79
2024/01/09 07:10:56;;;;;;;0.30;0.30;;;-4.90;99.90;;;;;;4998192;28;20041;-78
2024/01/09 07:13:22;;;;;;;0.60;0.60;;;-5.00;99.90;;;;;;4981569;28;20047;-79
2024/01/09 07:15:49;;;;;;;2.85;0.43;;;-5.00;99.90;;;;;;4998777;28;20034;-79
2024/01/09 07:18:15;;;;;;;3.72;1.33;;;-4.90;99.90;;;;;;4984596;28;20042;-79
2024/01/09 07:20:42;;;;;;;1.00;0.70;;;-4.90;99.90;;;;;;4997469;28;20042;-79
2024/01/09 07:23:07;;;;;;;0.82;0.77;;;-5.00;99.90;;;;;;5000874;28;20128;-79
2024/01/09 07:25:33;;;;;;;7.75;4.97;;;-5.00;99.90;;;;;;5001554;28;20053;-79
2024/01/09 07:27:59;;;;;;;1.10;1.00;;;-5.00;99.90;;;;;;4984019;28;20061;-80
2024/01/09 07:30:25;;;;;;;3.85;1.08;;;-5.00;99.90;;;;;;4980677;28;20050;-80
2024/01/09 07:32:51;;;;;;;0.75;0.75;;;-5.00;99.90;;;;;;5017265;28;20123;-81
2024/01/09 07:35:16;;;;;;;2.22;0.63;;;-5.00;99.90;;;;;;4999089;28;20090;-80
2024/01/09 07:37:42;;;;;;;1.38;0.63;;;-5.00;99.90;;;;;;5016065;28;20053;-80
2024/01/09 07:40:09;;;;;;;0.45;0.45;;;-5.00;99.90;;;;;;4999749;28;20038;-80
2024/01/09 07:42:35;;;;;;;1.85;1.05;;;-5.00;99.90;;;;;;5000177;28;20050;-80
2024/01/09 07:45:02;;;;;;;1.20;0.95;;;-5.00;99.90;;;;;;5000075;28;20182;-80
2024/01/09 07:47:28;;;;;;;2.75;0.90;;;-4.90;99.90;;;;;;4984594;28;20079;-80
2024/01/09 07:49:54;;;;;;;2.03;1.23;;;-5.00;99.90;;;;;;4999459;28;20414;-80
2024/01/09 07:52:20;;;;;;;1.42;0.65;;;-5.00;99.90;;;;;;4983449;28;20042;-80
2024/01/09 07:54:45;;;;;;;5.80;1.67;;;-5.00;99.90;;;;;;5000159;28;20038;-80
2024/01/09 07:57:12;;;;;;;3.13;1.45;;;-5.00;99.90;;;;;;5004053;28;20041;-80
2024/01/09 07:59:39;;;;;;;0.68;0.40;;;-5.00;99.90;;;;;;4997047;28;20101;-80
2024/01/09 08:02:06;;;;;;;3.33;0.60;;;-5.00;99.90;;;;;;4994878;28;20064;-80
2024/01/09 08:04:32;;;;;;;4.55;1.55;;;-5.00;99.90;;;;;;4982342;28;20073;-80
2024/01/09 08:06:57;;;;;;;2.40;1.55;;;-5.00;99.90;;;;;;4982199;28;20084;-80
2024/01/09 08:09:23;;;;;;;0.63;0.50;;;-5.00;99.90;;;;;;4967901;28;20034;-80
2024/01/09 08:11:49;;;;;;;2.35;1.50;;;-4.90;99.90;;;;;;4968080;28;20046;-80
2024/01/09 08:14:15;;;;;;;2.22;0.77;;;-4.90;99.90;;;;;;5015399;28;20110;-80
2024/01/09 08:16:41;;;;;;;9.18;1.33;;;-4.80;99.90;;;;;;5013012;28;20050;-80
2024/01/09 08:19:07;;;;;;;1.83;1.15;;;-4.70;99.90;;;;;;4981301;28;20049;-80
2024/01/09 08:21:37;;;;;;;3.53;1.58;;;-4.70;99.90;;;;;;4992425;28;20050;-80
2024/01/09 08:24:03;;;;;;;2.05;1.38;;;-4.60;99.90;;;;;;4998520;28;20053;-80
2024/01/09 08:26:30;;;;;;;0.95;0.40;;;-4.60;99.90;;;;;;4983259;28;20046;-81
2024/01/09 08:28:56;;;;;;;1.63;1.27;;;-4.60;99.90;;;;;;4998932;28;20046;-80
2024/01/09 08:31:22;;;;;;;1.00;0.40;;;-4.60;99.90;;;;;;4999390;28;20053;-80
2024/01/09 08:33:48;;;;;;;1.20;1.10;;;-4.60;99.90;;;;;;5017160;28;20053;-80
2024/01/09 08:36:14;;;;;;;1.00;0.35;;;-4.50;99.90;;;;;;4983192;28;20099;-80
2024/01/09 08:38:40;;;;;;;1.13;1.02;;;-4.50;99.90;;;;;;4982291;28;20042;-80
2024/01/09 08:41:06;;;;;;;1.13;0.80;;;-4.40;99.90;;;;;;4999411;28;20045;-80
2024/01/09 08:43:31;;;;;;;2.80;1.45;;;-4.30;99.90;;;;;;4981377;28;20066;-80
2024/01/09 08:45:57;;;;;;;0.93;0.93;;;-4.30;99.90;;;;;;4999988;28;20068;-80
2024/01/09 08:48:23;;;;;;;0.65;0.60;;;-4.30;99.90;;;;;;4998316;28;20042;-80
2024/01/09 08:50:49;;;;;;;2.25;0.90;;;-4.30;99.90;;;;;;4999175;28;20042;-81
2024/01/09 08:53:15;;;;;;;6.07;1.30;;;-4.30;99.90;;;;;;4990783;28;20049;-80
2024/01/09 08:55:41;;;;;;;7.18;1.30;;;-4.30;99.90;;;;;;4999487;28;20061;-80
2024/01/09 08:58:07;;;;;;;1.33;1.17;;;-4.30;99.90;;;;;;4981654;28;20050;-79
2024/01/09 09:00:34;;;;;;;1.63;0.90;;;-4.10;99.90;;;;;;4983272;28;20895;-79
2024/01/09 09:03:01;;;;;;;0.30;0.30;;;-4.10;99.90;;;;;;5000044;28;20038;-79
2024/01/09 09:05:26;;;;;;;1.52;0.80;;;-4.00;99.90;;;;;;4981957;28;20045;-79
2024/01/09 09:07:53;;;;;;;1.88;1.05;;;-3.80;99.90;;;;;;5000243;28;20363;-79
2024/01/09 09:10:19;;;;;;;3.13;0.90;;;-3.60;99.90;;;;;;4994398;28;20061;-79
2024/01/09 09:12:45;;;;;;;0.68;0.55;;;-3.30;99.90;;;;;;4999898;28;20045;-79
2024/01/09 09:15:11;;;;;;;4.75;2.97;;;-3.00;99.90;;;;;;5015409;28;20046;-79
2024/01/09 09:17:36;;;;;;;0.60;0.60;;;-2.80;99.90;;;;;;5013988;28;21021;-79
2024/01/09 09:20:05;;;;;;;2.15;1.52;;;-2.80;99.90;;;;;;4987424;28;20057;-79
2024/01/09 09:22:30;;;;;;;3.53;0.98;;;-2.90;99.90;;;;;;4965831;28;20486;-79
2024/01/09 09:24:56;;;;;;;1.17;1.00;;;-2.80;99.90;;;;;;4997789;28;20072;-79
2024/01/09 09:27:22;;;;;;;2.60;1.35;;;-2.80;99.90;;;;;;4999011;28;20050;-77
2024/01/09 09:29:48;;;;;;;1.30;1.02;;;-2.70;99.90;;;;;;4999360;28;20445;-77
2024/01/09 09:32:13;;;;;;;3.40;1.10;;;-2.60;99.90;;;;;;4982013;28;20050;-77
2024/01/09 09:34:40;;;;;;;0.40;0.40;;;-2.40;99.90;;;;;;4977282;28;20045;-77
2024/01/09 09:37:07;;;;;;;3.10;0.90;;;-2.10;99.90;;;;;;5012480;28;20045;-77
2024/01/09 09:39:32;;;;;;;3.95;1.75;;;-1.80;99.90;;;;;;4997761;28;20045;-77
2024/01/09 09:41:58;;;;;;;1.48;0.85;;;-1.40;99.90;;;;;;4968431;28;20091;-78
2024/01/09 09:44:25;;;;;;;2.20;1.10;;;-1.00;99.90;;;;;;4995085;28;20456;-77
2024/01/09 09:46:51;;;;;;;2.83;0.73;;;-0.70;99.90;;;;;;5015428;28;20037;-77
2024/01/09 09:49:20;;;;;;;3.33;1.85;;;-0.50;99.90;;;;;;4998040;28;20042;-77
2024/01/09 09:51:47;;;;;;;3.22;0.68;;;-0.60;99.90;;;;;;5008881;28;20091;-77
2024/01/09 09:54:14;;;;;;;4.50;1.23;;;-0.80;99.90;;;;;;5012966;28;20067;-78
2024/01/09 09:56:41;;;;;;;1.40;1.10;;;-0.70;99.90;;;;;;5013854;28;20050;-77
2024/01/09 09:59:09;;;;;;;4.85;1.17;;;-0.40;99.90;;;;;;4996455;28;20030;-78
2024/01/09 10:01:35;;;;;;;1.33;0.80;;;-0.50;99.90;;;;;;5012264;28;20092;-78
2024/01/09 10:04:29;;;;;;;0.95;0.95;;;-0.70;99.90;;;;;;4982633;28;20105;-79
2024/01/09 10:07:00;;;;;;;1.33;1.23;;;-0.80;99.90;;;;;;4988880;28;20069;-78
2024/01/09 10:09:32;;;;;;;2.00;1.67;;;-1.20;99.90;;;;;;5010842;28;20046;-78
2024/01/09 10:11:57;;;;;;;5.70;1.67;;;-1.60;99.90;;;;;;5015546;28;20050;-78
2024/01/09 10:14:23;;;;;;;2.92;0.70;;;-1.80;99.90;;;;;;5001534;28;20053;-78
2024/01/09 10:16:50;;;;;;;2.17;1.15;;;-2.00;99.90;;;;;;4970254;28;20045;-78
2024/01/09 10:19:16;;;;;;;2.10;0.82;;;-2.20;99.90;;;;;;5001560;28;20502;-78
2024/01/09 10:21:42;;;;;;;0.57;0.57;;;-2.30;99.90;;;;;;5004156;28;20106;-79
2024/01/09 10:24:08;;;;;;;2.65;0.85;;;-2.50;99.90;;;;;;4981457;28;20073;-79
2024/01/09 10:26:34;;;;;;;2.70;0.85;;;-2.50;99.90;;;;;;4984921;28;20585;-78
2024/01/09 10:29:01;;;;;;;6.15;1.05;;;-2.50;99.90;;;;;;5019679;28;20081;-78
2024/01/09 10:31:27;;;;;;;1.95;1.35;;;-2.50;99.90;;;;;;4981887;28;20050;-79
2024/01/09 10:33:54;;;;;;;1.40;0.70;;;-2.40;99.90;;;;;;4979073;28;20080;-78
2024/01/09 10:36:19;;;;;;;0.55;0.55;;;-2.40;99.90;;;;;;5001026;28;20046;-79
2024/01/09 10:38:46;;;;;;;3.28;1.00;;;-2.40;99.90;;;;;;5000342;28;20041;-79
2024/01/09 10:41:16;;;;;;;1.35;0.85;;;-2.40;99.90;;;;;;5015164;28;20062;-79
2024/01/09 10:43:47;;;;;;;0.60;0.52;;;-2.50;99.90;;;;;;5000591;28;20050;-79
2024/01/09 10:46:14;;;;;;;2.58;0.85;;;-2.40;99.90;;;;;;4977457;28;20050;-79
2024/01/09 10:48:46;;;;;;;0.77;0.77;;;-2.30;99.90;;;;;;4981817;28;20072;-79
2024/01/09 10:51:13;;;;;;;0.93;0.57;;;-2.30;99.90;;;;;;4991890;28;20054;-79
2024/01/09 10:53:40;;;;;;;1.67;0.75;;;-2.30;99.90;;;;;;5081854;28;20066;-78
2024/01/09 10:56:09;;;;;;;2.78;0.70;;;-2.20;99.90;;;;;;5030128;28;20050;-79
2024/01/09 10:58:38;;;;;;;1.10;0.82;;;-2.10;99.90;;;;;;5001647;28;20038;-78
2024/01/09 11:01:04;;;;;;;1.88;1.10;;;-2.10;99.90;;;;;;4964868;28;20491;-78
2024/01/09 11:03:30;;;;;;;0.40;0.40;;;-2.10;99.90;;;;;;4997560;28;20053;-78
2024/01/09 11:05:59;;;;;;;1.52;1.33;;;-2.10;99.90;;;;;;5011028;28;20068;-78
2024/01/09 11:08:26;;;;;;;1.88;0.88;;;-2.00;99.90;;;;;;5018406;28;20426;-78
2024/01/09 11:10:52;;;;;;;1.85;0.90;;;-2.00;99.90;;;;;;4981630;28;20046;-77
2024/01/09 11:13:20;;;;;;;1.58;1.00;;;-1.90;99.90;;;;;;4959705;28;20134;-78
2024/01/09 11:15:52;;;;;;;2.05;0.70;;;-1.80;99.90;;;;;;5000997;28;20044;-78
2024/01/09 11:18:18;;;;;;;;;;;-1.90;99.90;;;;;;5017767;28;20041;-77
2024/01/09 11:20:44;;;;;;;2.25;0.68;;;-1.80;99.90;;;;;;5017704;28;19964;-77
2024/01/09 11:23:11;;;;;;;1.88;0.98;;;-1.80;99.90;;;;;;5013924;28;20046;-77
2024/01/09 11:25:37;;;;;;;9.70;1.13;;;-1.80;99.90;;;;;;4995925;28;20050;-78
2024/01/09 11:28:03;;;;;;;3.67;1.23;;;-1.80;99.90;;;;;;5000875;28;20046;-78
2024/01/09 11:30:31;;;;;;;1.92;0.75;;;-1.70;99.90;;;;;;5017461;28;20050;-77
2024/01/09 11:32:58;;;;;;;1.90;0.60;;;-1.70;99.90;;;;;;5001049;28;20041;-77
2024/01/09 11:35:27;;;;;;;6.55;0.80;;;-1.70;99.90;;;;;;4973139;28;20114;-77
2024/01/09 11:37:55;;;;;;;1.55;0.82;;;-1.70;99.90;;;;;;5014991;28;20044;-77
2024/01/09 11:40:21;;;;;;;1.20;0.60;;;-1.70;99.90;;;;;;4981807;28;20734;-77
2024/01/09 11:42:51;;;;;;;1.60;1.48;;;-1.60;99.90;;;;;;4994949;28;20054;-77
2024/01/09 11:45:25;;;;;;;2.08;0.93;;;-1.60;99.90;;;;;;4993727;28;20147;-77
2024/01/09 11:47:53;;;;;;;1.63;0.80;;;-1.60;99.90;;;;;;5016885;28;20065;-77
2024/01/09 11:50:19;;;;;;;2.47;1.05;;;-1.60;99.90;;;;;;5017751;28;20535;-77
2024/01/09 11:52:47;;;;;;;1.35;0.88;;;-1.50;99.90;;;;;;5000234;28;20056;-77
2024/01/09 11:55:13;;;;;;;0.88;0.85;;;-1.50;99.90;;;;;;4999842;28;20042;-76
2024/01/09 11:57:41;;;;;;;1.67;0.70;;;-1.40;99.90;;;;;;5000492;28;20045;-76
2024/01/09 12:00:09;;;;;;;0.60;0.60;;;-1.30;99.90;;;;;;5018491;28;20053;-77
2024/01/09 12:02:38;;;;;;;1.08;0.63;;;-1.40;99.90;;;;;;5000789;28;20580;-77
2024/01/09 12:05:05;;;;;;;1.42;0.63;;;-1.30;99.90;;;;;;4994589;28;20069;-76
2024/01/09 12:07:39;;;;;;;1.65;0.85;;;-1.30;99.90;;;;;;5016494;28;20050;-76
2024/01/09 12:10:06;;;;;;;1.55;0.55;;;-1.30;99.90;;;;;;4999834;28;20046;-76
2024/01/09 12:12:32;;;;;;;1.77;1.05;;;-1.30;99.90;;;;;;4984530;28;20034;-76
2024/01/09 12:14:59;;;;;;;0.68;0.60;;;-1.20;99.90;;;;;;4999226;28;20057;-76
2024/01/09 12:17:29;;;;;;;1.20;1.05;;;-1.20;99.90;;;;;;4984307;28;20046;-76
2024/01/09 12:19:55;;;;;;;2.25;0.77;;;-1.20;99.90;;;;;;5016903;28;20062;-76
2024/01/09 12:22:21;;;;;;;1.83;1.08;;;-1.20;99.90;;;;;;4999705;28;20066;-76
2024/01/09 12:24:51;;;;;;;0.95;0.85;;;-1.20;99.90;;;;;;5016895;28;20046;-75
2024/01/09 12:27:18;;;;;;;3.00;1.10;;;-1.20;99.90;;;;;;4995608;28;20050;-76
2024/01/09 12:29:44;;;;;;;3.90;2.58;;;-1.10;99.90;;;;;;5003479;28;20102;-76
2024/01/09 12:32:11;;;;;;;3.35;1.85;;;-1.10;99.90;;;;;;4980343;28;20050;-76
2024/01/09 12:34:39;;;;;;;1.02;1.02;;;-1.00;99.90;;;;;;4995693;28;20050;-76
2024/01/09 12:37:06;;;;;;;2.20;0.85;;;-1.00;99.90;;;;;;4995240;28;20049;-76
2024/01/09 12:39:33;;;;;;;0.70;0.65;;;-1.00;99.90;;;;;;4981226;28;20042;-77
2024/01/09 12:42:05;;;;;;;3.92;1.48;;;-1.00;99.90;;;;;;4995157;28;20045;-76
2024/01/09 12:44:31;;;;;;;0.93;0.93;;;-0.90;99.90;;;;;;5028730;28;20070;-76